Time;durP1;ratioP1;P1;durP2;ratioP2;P2;SDS_P1;SDS_P2;PMS_P1;PMS_P2;Temp;Humidity;BMP_temperature;BMP_pressure;BME280_temperature;BME280_humidity;BME280_pressure;Samples;Min_cycle;Max_cycle;Signal;HPM_P1;HPM_P2
2020/12/19 00:02:26;;;;;;;23.00;15.27;;;3.20;63.30;;;;;;6293436;22;40615;-91
2020/12/19 00:04:53;;;;;;;24.60;14.07;;;3.20;63.40;;;;;;6295594;22;39957;-84
2020/12/19 00:07:21;;;;;;;22.00;14.17;;;3.20;63.40;;;;;;6295522;22;38762;-89
2020/12/19 00:09:48;;;;;;;18.10;14.20;;;3.20;63.80;;;;;;6270400;22;37162;-88
2020/12/19 00:12:20;;;;;;;19.80;13.80;;;3.30;63.70;;;;;;6261829;22;39780;-79
2020/12/19 00:14:49;;;;;;;15.60;12.47;;;3.40;63.10;;;;;;6229274;22;37643;-79
2020/12/19 00:17:18;;;;;;;17.03;12.93;;;3.50;62.70;;;;;;6254418;22;38160;-79
2020/12/19 00:19:45;;;;;;;16.63;13.10;;;3.60;62.00;;;;;;6227098;22;37264;-79
2020/12/19 00:22:12;;;;;;;21.80;12.77;;;3.70;61.70;;;;;;6253884;22;39677;-79
2020/12/19 00:24:39;;;;;;;15.30;12.00;;;3.70;62.10;;;;;;6253964;22;38864;-77
2020/12/19 00:27:10;;;;;;;16.30;12.07;;;3.60;61.40;;;;;;6253488;22;38931;-79
2020/12/19 00:29:38;;;;;;;16.20;12.90;;;3.60;61.60;;;;;;6254093;22;37235;-78
2020/12/19 00:32:08;;;;;;;15.97;11.20;;;3.60;61.30;;;;;;6226527;22;40317;-78
2020/12/19 00:34:35;;;;;;;15.53;10.87;;;3.70;61.20;;;;;;6253310;22;39189;-79
2020/12/19 00:37:05;;;;;;;12.10;10.10;;;3.70;61.40;;;;;;6228314;22;38041;-79
2020/12/19 00:39:32;;;;;;;15.20;10.97;;;3.60;60.90;;;;;;6224221;22;36141;-81
2020/12/19 00:41:59;;;;;;;14.80;9.70;;;3.60;60.90;;;;;;6250894;22;39974;-78
2020/12/19 00:44:27;;;;;;;14.87;11.13;;;3.60;60.60;;;;;;6254442;22;39231;-88
2020/12/19 00:46:54;;;;;;;15.00;11.37;;;3.60;60.60;;;;;;6263348;22;38080;-88
2020/12/19 00:49:26;;;;;;;15.83;11.63;;;3.60;60.30;;;;;;6259738;22;37607;-87
2020/12/19 00:51:56;;;;;;;12.93;10.20;;;3.50;59.80;;;;;;6259292;22;39894;-88
2020/12/19 00:54:23;;;;;;;17.83;10.27;;;3.40;59.70;;;;;;6263043;22;39186;-87
2020/12/19 00:56:52;;;;;;;18.63;12.30;;;3.30;59.50;;;;;;6263873;22;38605;-88
2020/12/19 00:59:22;;;;;;;14.60;10.60;;;3.20;59.70;;;;;;6229723;22;35862;-89
2020/12/19 01:01:50;;;;;;;15.50;11.40;;;3.10;60.00;;;;;;6254677;22;39948;-88
2020/12/19 01:04:17;;;;;;;16.30;12.10;;;3.00;60.10;;;;;;6258642;22;38846;-86
2020/12/19 01:06:47;;;;;;;17.67;11.37;;;2.90;60.40;;;;;;6257388;22;39167;-88
2020/12/19 01:09:16;;;;;;;15.10;11.67;;;2.80;60.80;;;;;;6231690;22;37168;-90
2020/12/19 01:11:45;;;;;;;18.83;12.00;;;2.80;60.90;;;;;;6259008;22;40104;-88
2020/12/19 01:14:15;;;;;;;14.57;11.20;;;2.80;60.90;;;;;;6256861;22;39273;-88
2020/12/19 01:16:42;;;;;;;14.60;12.60;;;2.70;61.20;;;;;;6225081;22;36422;-88
2020/12/19 01:19:10;;;;;;;20.93;12.40;;;2.60;61.30;;;;;;6223535;22;35816;-85
2020/12/19 01:21:37;;;;;;;19.83;12.43;;;2.60;61.50;;;;;;6251859;22;40648;-87
2020/12/19 01:24:05;;;;;;;17.00;12.33;;;2.60;61.80;;;;;;6252368;22;38633;-89
2020/12/19 01:26:32;;;;;;;16.30;12.60;;;2.60;61.70;;;;;;6254022;22;37725;-88
2020/12/19 01:28:59;;;;;;;15.70;12.10;;;2.50;61.80;;;;;;6226155;22;36172;-88
2020/12/19 01:31:28;;;;;;;17.47;12.67;;;2.50;62.00;;;;;;6253317;22;40248;-86
2020/12/19 01:33:55;;;;;;;16.47;12.40;;;2.50;62.10;;;;;;6252540;22;38866;-87
2020/12/19 01:36:24;;;;;;;21.33;14.03;;;2.50;62.00;;;;;;6250211;22;38332;-87
2020/12/19 01:38:51;;;;;;;21.07;13.03;;;2.40;62.10;;;;;;6252592;22;37720;-87
2020/12/19 01:41:22;;;;;;;16.47;13.30;;;2.40;62.40;;;;;;6252593;22;40603;-88
2020/12/19 01:43:50;;;;;;;16.20;12.70;;;2.40;62.40;;;;;;6252421;22;38866;-88
2020/12/19 01:46:33;;;;;;;15.90;11.70;;;2.30;62.50;;;;;;6252543;22;37987;-88
2020/12/19 01:49:03;;;;;;;16.63;13.67;;;2.40;62.70;;;;;;6251457;22;37486;-86
2020/12/19 01:51:31;;;;;;;16.87;13.00;;;2.30;62.70;;;;;;6254235;22;39364;-85
2020/12/19 01:53:58;;;;;;;15.00;12.73;;;2.30;62.60;;;;;;6229517;22;38131;-88
2020/12/19 01:56:47;;;;;;;18.83;12.93;;;2.30;62.60;;;;;;6255082;22;37735;-87
2020/12/19 02:05:52;;;;;;;17.03;12.87;;;2.10;62.70;;;;;;6231865;22;37817;-89
2020/12/19 02:08:22;;;;;;;15.70;13.13;;;2.20;63.20;;;;;;6261534;22;37975;-88
2020/12/19 02:10:49;;;;;;;16.90;12.80;;;2.20;63.20;;;;;;6261980;22;38448;-88
2020/12/19 02:13:17;;;;;;;16.20;11.43;;;2.10;63.30;;;;;;6268287;22;40042;-87
2020/12/19 02:15:46;;;;;;;16.33;12.73;;;2.10;63.40;;;;;;6268334;22;39378;-88
2020/12/19 02:18:16;;;;;;;18.33;13.27;;;2.10;63.50;;;;;;6272606;22;38478;-89
2020/12/19 02:20:43;;;;;;;17.57;14.13;;;2.00;63.60;;;;;;6269363;22;38224;-89
2020/12/19 02:23:10;;;;;;;17.57;14.00;;;2.00;63.70;;;;;;6243131;22;39516;-87
2020/12/19 02:25:38;;;;;;;16.97;12.70;;;2.00;63.90;;;;;;6271716;22;39326;-89
2020/12/19 02:28:06;;;;;;;17.53;13.20;;;2.00;63.60;;;;;;6243217;22;37057;-87
2020/12/19 02:30:34;;;;;;;17.73;13.07;;;2.00;63.70;;;;;;6235989;22;37002;-88
2020/12/19 02:33:01;;;;;;;19.27;14.00;;;1.90;63.70;;;;;;6256768;22;40342;-88
2020/12/19 02:35:30;;;;;;;15.30;12.13;;;1.90;63.70;;;;;;6260287;22;39238;-89
2020/12/19 02:41:00;;;;;;;17.13;12.07;;;1.90;64.00;;;;;;6231823;22;38307;-86
2020/12/19 02:43:30;;;;;;;16.00;12.33;;;1.90;64.50;;;;;;6269215;22;39789;-88
2020/12/19 02:46:02;;;;;;;17.07;12.40;;;1.80;63.70;;;;;;6272910;22;39648;-87
2020/12/19 02:48:34;;;;;;;17.23;11.57;;;1.80;63.80;;;;;;6248382;22;36280;-87
2020/12/19 02:51:03;;;;;;;19.13;12.33;;;1.90;63.90;;;;;;6250946;22;37406;-88
2020/12/19 02:53:34;;;;;;;17.20;12.90;;;1.90;63.80;;;;;;6250994;22;39364;-86
2020/12/19 02:56:02;;;;;;;21.13;11.67;;;1.90;63.60;;;;;;6276580;22;39932;-85
2020/12/19 02:58:29;;;;;;;18.60;12.30;;;1.80;64.20;;;;;;6245938;22;36910;-87
2020/12/19 03:00:56;;;;;;;16.70;12.57;;;1.80;63.90;;;;;;6271212;22;37946;-89
2020/12/19 03:03:27;;;;;;;23.33;13.40;;;1.80;63.90;;;;;;6270158;22;38692;-88
2020/12/19 03:05:54;;;;;;;15.33;12.00;;;1.80;64.00;;;;;;6231886;22;37835;-86
2020/12/19 03:08:22;;;;;;;15.43;12.50;;;1.80;63.90;;;;;;6257175;22;40181;-87
2020/12/19 03:10:50;;;;;;;15.30;11.90;;;1.80;64.10;;;;;;6255037;22;38298;-87
2020/12/19 03:13:23;;;;;;;17.27;12.23;;;1.70;63.90;;;;;;6227545;22;38898;-87
2020/12/19 03:15:56;;;;;;;14.87;12.10;;;1.70;64.00;;;;;;6225633;22;38704;-86
2020/12/19 03:18:24;;;;;;;18.00;13.20;;;1.70;64.00;;;;;;6226004;22;37491;-87
2020/12/19 03:20:51;;;;;;;16.93;13.37;;;1.70;64.00;;;;;;6226866;22;37380;-87
2020/12/19 03:23:25;;;;;;;18.77;13.00;;;1.80;64.00;;;;;;6252905;22;39585;-87
2020/12/19 03:25:53;;;;;;;20.17;13.60;;;1.70;63.80;;;;;;6225204;22;38809;-86
2020/12/19 03:28:22;;;;;;;19.27;12.90;;;1.70;63.70;;;;;;6226322;22;36800;-87
2020/12/19 03:30:55;;;;;;;16.33;13.10;;;1.60;63.80;;;;;;6233747;22;36706;-86
2020/12/19 03:33:25;;;;;;;18.77;13.33;;;1.60;64.00;;;;;;6235351;22;38826;-87
2020/12/19 03:35:53;;;;;;;18.70;12.03;;;1.60;64.00;;;;;;6262304;22;40285;-89
2020/12/19 03:38:20;;;;;;;18.50;12.80;;;1.60;64.00;;;;;;6252643;22;38108;-88
2020/12/19 03:40:47;;;;;;;18.00;12.70;;;1.60;64.10;;;;;;6253546;22;37159;-88
2020/12/19 03:43:15;;;;;;;17.40;12.67;;;1.50;64.10;;;;;;6253496;22;40646;-88
2020/12/19 03:45:46;;;;;;;17.07;13.27;;;1.50;64.20;;;;;;6252037;22;39611;-87
2020/12/19 03:48:14;;;;;;;18.67;13.20;;;1.50;64.40;;;;;;6251236;22;37635;-90
2020/12/19 03:50:46;;;;;;;16.73;13.03;;;1.50;64.20;;;;;;6251821;22;36686;-88
2020/12/19 03:53:14;;;;;;;18.10;12.97;;;1.50;64.20;;;;;;6252094;22;40004;-87
2020/12/19 03:55:43;;;;;;;14.67;12.47;;;1.50;64.00;;;;;;6253161;22;39631;-89
2020/12/19 03:58:13;;;;;;;15.50;12.60;;;1.50;64.20;;;;;;6225402;22;36765;-90
2020/12/19 04:00:40;;;;;;;15.63;12.30;;;1.50;64.20;;;;;;6252319;22;38292;-88
2020/12/19 04:03:12;;;;;;;17.23;12.70;;;1.50;64.20;;;;;;6252193;22;40385;-89
2020/12/19 04:05:40;;;;;;;17.53;12.60;;;1.50;64.20;;;;;;6253862;22;39017;-88
2020/12/19 04:08:12;;;;;;;14.60;12.57;;;1.40;64.00;;;;;;6227500;22;36951;-90
2020/12/19 04:10:39;;;;;;;19.37;13.90;;;1.40;64.00;;;;;;6255429;22;36828;-87
2020/12/19 04:13:09;;;;;;;16.07;11.80;;;1.30;64.20;;;;;;6285906;22;40044;-88
2020/12/19 04:15:36;;;;;;;17.33;12.57;;;1.30;64.30;;;;;;6286521;22;38963;-87
2020/12/19 04:18:10;;;;;;;19.97;12.17;;;1.30;64.30;;;;;;6259738;22;38511;-88
2020/12/19 04:20:38;;;;;;;17.70;12.73;;;1.30;64.20;;;;;;6263953;22;37903;-87
2020/12/19 04:23:05;;;;;;;16.50;12.00;;;1.30;64.30;;;;;;6263410;22;39586;-88
2020/12/19 04:25:39;;;;;;;18.50;13.30;;;1.20;64.20;;;;;;6298909;22;38975;-87
2020/12/19 04:28:07;;;;;;;15.43;11.80;;;1.20;64.50;;;;;;6297424;22;38241;-87
2020/12/19 04:30:38;;;;;;;16.50;13.13;;;1.30;64.50;;;;;;6270719;22;36578;-87
2020/12/19 04:33:05;;;;;;;15.27;11.67;;;1.30;64.40;;;;;;6298318;22;41174;-87
2020/12/19 04:35:55;;;;;;;14.17;11.10;;;1.30;64.20;;;;;;6297125;22;39703;-88
2020/12/19 04:38:28;;;;;;;14.90;11.90;;;1.20;64.30;;;;;;6263151;22;36798;-87
2020/12/19 04:40:57;;;;;;;17.87;12.33;;;1.20;64.60;;;;;;6300285;22;38196;-88
2020/12/19 04:43:27;;;;;;;20.77;12.37;;;1.20;64.50;;;;;;6271151;22;38820;-85
2020/12/19 04:45:55;;;;;;;17.50;12.67;;;1.20;64.60;;;;;;6285978;22;39274;-86
2020/12/19 04:48:24;;;;;;;16.30;11.47;;;1.10;64.50;;;;;;6284902;22;38315;-86
2020/12/19 04:50:52;;;;;;;21.83;13.03;;;1.10;64.70;;;;;;6284486;22;38331;-86
2020/12/19 04:53:22;;;;;;;20.80;13.40;;;1.20;64.80;;;;;;6283211;22;40552;-87
2020/12/19 04:55:52;;;;;;;17.97;13.07;;;1.10;64.80;;;;;;6282828;22;38128;-87
2020/12/19 04:58:20;;;;;;;15.80;12.03;;;1.20;64.70;;;;;;6253842;22;36484;-87
2020/12/19 05:00:48;;;;;;;21.40;14.37;;;1.10;64.80;;;;;;6254707;22;36315;-86
2020/12/19 05:03:15;;;;;;;19.17;13.10;;;1.10;65.00;;;;;;6254149;22;39080;-87
2020/12/19 05:05:44;;;;;;;18.43;12.30;;;1.10;65.00;;;;;;6254431;22;38029;-85
2020/12/19 05:08:12;;;;;;;18.07;13.20;;;1.10;64.90;;;;;;6283435;22;37994;-85
2020/12/19 05:10:40;;;;;;;16.67;13.00;;;1.10;64.90;;;;;;6281052;22;37709;-86
2020/12/19 05:13:07;;;;;;;19.23;14.20;;;1.10;65.00;;;;;;6250182;22;40607;-86
2020/12/19 05:15:35;;;;;;;18.57;12.90;;;1.10;65.00;;;;;;6249866;22;38893;-84
2020/12/19 05:18:02;;;;;;;18.30;13.10;;;1.10;65.00;;;;;;6222774;22;36647;-85
2020/12/19 05:20:30;;;;;;;19.17;12.27;;;1.00;64.90;;;;;;6249420;22;37749;-85
2020/12/19 05:22:58;;;;;;;20.53;12.13;;;1.10;65.00;;;;;;6250107;22;40376;-85
2020/12/19 05:25:27;;;;;;;19.10;13.00;;;1.10;64.90;;;;;;6254342;22;40041;-85
2020/12/19 05:27:57;;;;;;;17.57;13.37;;;1.10;65.00;;;;;;6257141;22;37700;-87
2020/12/19 05:30:26;;;;;;;17.60;12.40;;;1.10;64.70;;;;;;6236062;22;36807;-85
2020/12/19 05:32:54;;;;;;;17.33;12.47;;;1.00;64.70;;;;;;6260404;22;40138;-85
2020/12/19 05:35:24;;;;;;;17.43;12.50;;;1.00;64.80;;;;;;6231367;22;38051;-86
2020/12/19 05:37:57;;;;;;;17.30;12.00;;;0.90;64.80;;;;;;6261819;22;38915;-86
2020/12/19 05:40:28;;;;;;;14.67;11.20;;;0.90;65.00;;;;;;6262390;22;38502;-86
2020/12/19 05:42:57;;;;;;;18.23;12.03;;;0.90;65.00;;;;;;6260897;22;41054;-86
2020/12/19 05:45:27;;;;;;;17.47;11.87;;;0.90;65.10;;;;;;6254450;22;38767;-86
2020/12/19 05:47:55;;;;;;;22.33;12.20;;;0.90;65.20;;;;;;6253240;22;37972;-87
2020/12/19 05:50:23;;;;;;;14.37;10.73;;;0.80;65.10;;;;;;6227561;22;36636;-87
2020/12/19 05:52:57;;;;;;;18.20;12.47;;;0.90;65.20;;;;;;6253981;22;42179;-88
2020/12/19 05:55:27;;;;;;;21.77;13.47;;;0.90;65.20;;;;;;6231276;22;38054;-88
2020/12/19 05:57:57;;;;;;;17.23;12.20;;;0.90;65.30;;;;;;6253871;22;38750;-87
2020/12/19 06:00:32;;;;;;;22.20;12.93;;;0.90;65.20;;;;;;6254542;22;37894;-88
2020/12/19 06:03:05;;;;;;;18.90;13.13;;;0.90;65.00;;;;;;6253325;22;40546;-87
2020/12/19 06:05:36;;;;;;;24.77;13.43;;;0.80;65.00;;;;;;6255809;22;39109;-87
2020/12/19 06:08:08;;;;;;;21.90;13.07;;;0.80;65.20;;;;;;6256843;22;38112;-87
2020/12/19 06:10:35;;;;;;;19.07;13.47;;;0.80;65.50;;;;;;6256402;22;38105;-88
2020/12/19 06:13:14;;;;;;;18.37;13.70;;;0.80;65.30;;;;;;6260147;22;39985;-87
2020/12/19 06:16:05;;;;;;;18.73;12.47;;;0.80;65.40;;;;;;6253389;22;39013;-86
2020/12/19 06:18:55;;;;;;;20.17;13.23;;;0.80;65.30;;;;;;6249205;22;38119;-89
2020/12/19 06:21:22;;;;;;;17.60;12.33;;;0.80;65.40;;;;;;6226250;22;37040;-85
2020/12/19 06:23:50;;;;;;;15.77;11.83;;;0.90;65.50;;;;;;6250323;22;41070;-87
2020/12/19 06:26:17;;;;;;;18.90;13.40;;;0.80;65.40;;;;;;6250684;22;40430;-87
2020/12/19 06:28:49;;;;;;;19.80;12.17;;;0.80;65.40;;;;;;6251751;22;37931;-88
2020/12/19 06:31:18;;;;;;;20.40;13.03;;;0.80;65.50;;;;;;6252091;22;37711;-87
2020/12/19 06:33:47;;;;;;;15.27;11.20;;;0.80;65.60;;;;;;6250073;22;39990;-88
2020/12/19 06:36:20;;;;;;;21.97;12.80;;;0.80;65.70;;;;;;6250284;22;38804;-87
2020/12/19 06:38:50;;;;;;;20.30;12.90;;;0.80;65.70;;;;;;6223675;22;36718;-87
2020/12/19 06:41:40;;;;;;;19.97;13.50;;;0.80;65.80;;;;;;6250316;22;37913;-88
2020/12/19 06:44:09;;;;;;;21.43;13.27;;;0.80;65.70;;;;;;6250384;22;40333;-86
2020/12/19 06:46:37;;;;;;;17.53;13.37;;;0.80;65.60;;;;;;6250534;22;38975;-86
2020/12/19 06:49:29;;;;;;;20.17;13.90;;;0.80;65.50;;;;;;6250273;22;37655;-87
2020/12/19 06:52:10;;;;;;;22.53;14.10;;;0.80;65.60;;;;;;6250976;22;38422;-88
2020/12/19 06:54:39;;;;;;;19.20;13.60;;;0.80;65.50;;;;;;6223445;22;38543;-88
2020/12/19 06:57:07;;;;;;;17.33;13.50;;;0.80;65.50;;;;;;6224798;22;38165;-88
2020/12/19 06:59:35;;;;;;;24.17;14.97;;;0.80;65.50;;;;;;6229947;22;36606;-88
2020/12/19 07:02:16;;;;;;;17.40;13.27;;;0.80;65.50;;;;;;6258271;22;37547;-87
2020/12/19 07:04:43;;;;;;;16.97;12.43;;;0.80;65.50;;;;;;6268065;22;40114;-86
2020/12/19 07:07:12;;;;;;;20.07;15.07;;;0.80;65.30;;;;;;6268088;22;40153;-86
2020/12/19 07:09:40;;;;;;;18.00;14.00;;;0.80;65.40;;;;;;6264137;22;37739;-86
2020/12/19 07:12:33;;;;;;;19.60;13.83;;;0.80;65.50;;;;;;6252452;22;37363;-86
2020/12/19 07:15:02;;;;;;;19.23;13.23;;;0.80;65.50;;;;;;6264210;22;40156;-85
2020/12/19 07:17:42;;;;;;;21.80;13.83;;;0.80;65.40;;;;;;6265053;22;39355;-85
2020/12/19 07:20:09;;;;;;;18.83;14.27;;;0.80;65.50;;;;;;6269670;22;38420;-87
2020/12/19 07:22:36;;;;;;;17.67;13.40;;;0.90;65.50;;;;;;6250170;22;38257;-88
2020/12/19 07:25:03;;;;;;;20.43;13.50;;;0.80;65.50;;;;;;6251678;22;40007;-85
2020/12/19 07:27:30;;;;;;;19.40;13.97;;;0.90;65.70;;;;;;6224016;22;37699;-87
2020/12/19 07:29:58;;;;;;;16.20;12.57;;;0.90;65.60;;;;;;6250670;22;37771;-87
2020/12/19 07:32:26;;;;;;;16.53;13.17;;;1.00;65.80;;;;;;6251658;22;38014;-86
2020/12/19 07:34:54;;;;;;;20.93;13.90;;;1.00;65.70;;;;;;6248973;22;39761;-83
2020/12/19 07:37:24;;;;;;;17.63;12.17;;;1.00;65.80;;;;;;6251407;22;38913;-88
2020/12/19 07:40:04;;;;;;;19.27;13.90;;;1.00;65.80;;;;;;6250292;22;37449;-84
2020/12/19 07:42:31;;;;;;;17.40;13.70;;;1.10;66.10;;;;;;6250100;22;37154;-87
2020/12/19 07:44:58;;;;;;;21.10;13.67;;;1.20;66.20;;;;;;6250529;22;39817;-86
2020/12/19 07:47:29;;;;;;;25.30;15.47;;;1.20;66.00;;;;;;6250135;22;39757;-87
2020/12/19 07:49:56;;;;;;;24.07;14.83;;;1.30;66.10;;;;;;6250444;22;38399;-86
2020/12/19 07:52:27;;;;;;;21.60;16.10;;;1.30;66.10;;;;;;6223235;22;37568;-85
2020/12/19 07:54:58;;;;;;;20.37;13.97;;;1.30;66.20;;;;;;6249564;22;39632;-85
2020/12/19 07:57:26;;;;;;;21.30;13.90;;;1.40;66.20;;;;;;6249972;22;39090;-87
2020/12/19 07:59:54;;;;;;;21.40;14.53;;;1.40;66.10;;;;;;6251410;22;37999;-85
2020/12/19 08:02:22;;;;;;;18.40;14.17;;;1.50;66.30;;;;;;6249327;22;37465;-85
2020/12/19 08:04:55;;;;;;;21.73;13.97;;;1.70;66.20;;;;;;6250630;22;39808;-86
2020/12/19 08:07:25;;;;;;;20.27;14.03;;;1.60;66.10;;;;;;6224264;22;38541;-87
2020/12/19 08:10:12;;;;;;;18.67;13.30;;;1.70;66.10;;;;;;6223686;22;38010;-85
2020/12/19 08:12:40;;;;;;;18.30;13.30;;;1.70;66.00;;;;;;6249991;22;37178;-86
2020/12/19 08:15:10;;;;;;;21.77;15.43;;;1.80;66.20;;;;;;6250029;22;40126;-85
2020/12/19 08:17:46;;;;;;;20.23;14.83;;;1.90;65.90;;;;;;6250169;22;38786;-86
2020/12/19 08:20:19;;;;;;;19.27;14.33;;;1.90;65.90;;;;;;6224419;22;36617;-86
2020/12/19 08:22:49;;;;;;;21.77;15.03;;;1.90;65.80;;;;;;6251678;22;37301;-87
2020/12/19 08:25:17;;;;;;;20.97;14.80;;;1.90;66.30;;;;;;6260335;22;39898;-85
2020/12/19 08:27:46;;;;;;;17.80;14.53;;;2.00;65.50;;;;;;6246175;22;37692;-86
2020/12/19 08:30:16;;;;;;;25.17;16.60;;;2.00;65.70;;;;;;6275717;22;38941;-86
2020/12/19 08:32:46;;;;;;;20.50;15.90;;;2.10;65.40;;;;;;6273417;22;38083;-86
2020/12/19 08:35:22;;;;;;;21.97;15.23;;;2.10;65.20;;;;;;6260045;22;40619;-87
2020/12/19 08:38:02;;;;;;;23.97;14.47;;;2.20;65.40;;;;;;6261173;22;39270;-88
2020/12/19 08:40:34;;;;;;;20.20;13.80;;;2.30;65.40;;;;;;6254240;22;38013;-91
2020/12/19 08:43:01;;;;;;;15.90;13.30;;;2.30;65.00;;;;;;6252503;22;38265;-88
2020/12/19 08:45:29;;;;;;;18.13;12.40;;;2.40;65.10;;;;;;6251292;22;40150;-89
2020/12/19 08:47:59;;;;;;;15.00;12.37;;;2.40;64.90;;;;;;6250899;22;39849;-87
2020/12/19 08:50:29;;;;;;;17.90;13.07;;;2.50;64.90;;;;;;6251441;22;38862;-88
2020/12/19 08:53:01;;;;;;;17.07;13.97;;;2.60;64.70;;;;;;6210291;22;36121;-88
2020/12/19 08:55:28;;;;;;;18.83;13.40;;;2.60;64.40;;;;;;6224234;22;39157;-88
2020/12/19 08:57:55;;;;;;;15.30;11.73;;;2.60;64.20;;;;;;6251440;22;39304;-88
2020/12/19 09:00:22;;;;;;;18.03;12.80;;;2.70;64.20;;;;;;6257913;22;37764;-86
2020/12/19 09:02:50;;;;;;;20.00;14.93;;;2.70;64.10;;;;;;6268940;22;37429;-87
2020/12/19 09:05:32;;;;;;;17.13;13.90;;;2.80;64.00;;;;;;6273537;22;40659;-86
2020/12/19 09:07:59;;;;;;;22.43;17.60;;;2.80;64.00;;;;;;6257065;22;39061;-87
2020/12/19 09:14:27;;;;;;;24.67;18.13;;;2.90;63.90;;;;;;6291091;22;38074;-90
2020/12/19 09:16:54;;;;;;;23.90;18.40;;;3.00;63.90;;;;;;6261245;22;38524;-90
2020/12/19 09:19:21;;;;;;;23.33;16.90;;;3.00;64.00;;;;;;6290101;22;39427;-89
2020/12/19 09:21:56;;;;;;;21.03;15.77;;;3.10;64.10;;;;;;6262137;22;38102;-87
2020/12/19 09:24:28;;;;;;;19.53;14.13;;;3.20;64.00;;;;;;6298738;22;37679;-86
2020/12/19 09:26:55;;;;;;;20.73;16.50;;;3.30;64.00;;;;;;6296058;22;40806;-87
2020/12/19 09:29:25;;;;;;;23.40;15.90;;;3.40;63.80;;;;;;6302292;22;39396;-87
2020/12/19 09:31:54;;;;;;;23.07;16.10;;;3.50;63.60;;;;;;6288187;22;39053;-88
2020/12/19 09:34:22;;;;;;;17.93;14.47;;;3.60;63.40;;;;;;6283930;22;37454;-88
2020/12/19 09:36:50;;;;;;;18.67;14.20;;;3.70;62.90;;;;;;6282035;22;40525;-86
2020/12/19 09:39:18;;;;;;;17.93;14.60;;;3.80;62.90;;;;;;6281566;22;39789;-86
2020/12/19 09:41:45;;;;;;;17.23;14.60;;;4.00;62.80;;;;;;6281987;22;37882;-81
2020/12/19 09:44:12;;;;;;;19.37;14.30;;;4.20;62.80;;;;;;6281460;22;37899;-79
2020/12/19 09:46:39;;;;;;;17.57;13.70;;;4.30;62.20;;;;;;6254937;22;38901;-79
2020/12/19 09:49:06;;;;;;;13.37;11.03;;;4.90;64.10;;;;;;6282653;22;38986;-78
2020/12/19 09:51:33;;;;;;;12.47;10.60;;;6.30;63.20;;;;;;6254036;22;37096;-79
2020/12/19 09:54:00;;;;;;;14.00;10.00;;;8.10;58.80;;;;;;6282661;22;37214;-79
2020/12/19 09:56:29;;;;;;;12.00;10.30;;;9.90;54.30;;;;;;6284509;22;39634;-78
2020/12/19 09:58:56;;;;;;;16.07;11.30;;;11.50;47.50;;;;;;6284282;22;39857;-79
2020/12/19 10:01:23;;;;;;;12.03;10.47;;;12.60;44.10;;;;;;6257481;22;38099;-79
2020/12/19 10:03:50;;;;;;;10.83;9.70;;;13.20;42.30;;;;;;6259979;22;36602;-80
2020/12/19 10:06:17;;;;;;;12.53;9.40;;;13.40;40.40;;;;;;6255256;22;40038;-77
2020/12/19 10:08:45;;;;;;;13.93;9.50;;;13.60;40.50;;;;;;6282106;22;39817;-77
2020/12/19 10:11:12;;;;;;;10.70;9.30;;;13.80;39.20;;;;;;6282155;22;38165;-74
2020/12/19 10:13:42;;;;;;;10.50;9.40;;;13.70;38.10;;;;;;6230518;22;36063;-74
2020/12/19 10:16:09;;;;;;;10.43;9.33;;;12.60;39.50;;;;;;6224875;22;39118;-75
2020/12/19 10:18:36;;;;;;;9.27;8.37;;;11.30;41.40;;;;;;6251266;22;38965;-74
2020/12/19 10:21:06;;;;;;;10.27;7.53;;;10.60;42.80;;;;;;6225494;22;36452;-74
2020/12/19 10:23:34;;;;;;;13.23;8.40;;;10.20;43.60;;;;;;6252598;22;37148;-73
2020/12/19 10:26:03;;;;;;;10.63;8.43;;;9.80;45.50;;;;;;6251513;22;39833;-77
2020/12/19 10:28:30;;;;;;;9.20;7.77;;;10.30;44.40;;;;;;6251829;22;38872;-77
2020/12/19 10:30:58;;;;;;;8.30;7.43;;;10.70;43.40;;;;;;6249897;22;37685;-77
2020/12/19 10:33:25;;;;;;;8.53;7.63;;;11.10;42.60;;;;;;6251451;22;37964;-78
2020/12/19 10:35:53;;;;;;;8.93;7.70;;;11.50;42.00;;;;;;6225058;22;38708;-78
2020/12/19 10:38:23;;;;;;;8.57;7.30;;;12.00;41.00;;;;;;6251853;22;39007;-76
2020/12/19 10:40:50;;;;;;;10.43;7.83;;;12.20;40.70;;;;;;6252460;22;38563;-78
2020/12/19 10:43:18;;;;;;;13.10;8.93;;;12.20;40.30;;;;;;6252519;22;38039;-77
2020/12/19 10:45:46;;;;;;;12.03;8.90;;;12.20;40.30;;;;;;6253011;22;39846;-77
2020/12/19 10:48:14;;;;;;;9.00;8.10;;;12.10;40.30;;;;;;6254210;22;39099;-77
2020/12/19 10:50:45;;;;;;;11.23;8.73;;;12.10;40.40;;;;;;6261464;22;38469;-76
2020/12/19 10:53:12;;;;;;;37.67;10.00;;;11.80;40.50;;;;;;6260410;22;38277;-77
2020/12/19 10:55:39;;;;;;;9.17;7.60;;;11.50;41.50;;;;;;6253106;22;39580;-78
2020/12/19 10:58:06;;;;;;;9.70;8.37;;;11.30;41.40;;;;;;6226899;22;37429;-77
2020/12/19 11:00:33;;;;;;;8.33;7.57;;;11.20;42.10;;;;;;6252153;22;37676;-76
2020/12/19 11:03:00;;;;;;;8.33;7.53;;;11.10;42.20;;;;;;6252325;22;37859;-76
2020/12/19 11:05:28;;;;;;;9.00;8.10;;;11.00;42.40;;;;;;6257204;22;39921;-77
2020/12/19 11:07:55;;;;;;;10.33;7.77;;;10.80;43.70;;;;;;6255543;22;39165;-77
2020/12/19 11:10:24;;;;;;;10.70;9.23;;;10.80;43.10;;;;;;6252040;22;38504;-77
2020/12/19 11:12:53;;;;;;;11.37;8.30;;;10.60;43.20;;;;;;6242168;22;36397;-77
2020/12/19 11:15:20;;;;;;;12.17;8.80;;;10.50;43.40;;;;;;6213852;22;38704;-78
2020/12/19 11:17:49;;;;;;;10.23;8.90;;;10.40;43.70;;;;;;6255714;22;37959;-78
2020/12/19 11:20:16;;;;;;;11.93;8.10;;;10.20;43.70;;;;;;6280393;22;38350;-76
2020/12/19 11:22:44;;;;;;;9.37;7.53;;;10.00;44.30;;;;;;6280363;22;38409;-77
2020/12/19 11:25:13;;;;;;;16.63;8.80;;;9.80;45.50;;;;;;6280057;22;40318;-77
2020/12/19 11:27:41;;;;;;;8.30;7.40;;;9.70;46.20;;;;;;6278446;22;38986;-76
2020/12/19 11:30:09;;;;;;;9.97;8.13;;;9.60;46.50;;;;;;6278331;22;38291;-77
2020/12/19 11:32:41;;;;;;;11.60;9.50;;;9.50;46.80;;;;;;6251928;22;36038;-78
2020/12/19 11:35:08;;;;;;;16.07;13.27;;;9.50;46.80;;;;;;6279854;22;39743;-77
2020/12/19 11:37:35;;;;;;;11.03;8.67;;;9.40;46.90;;;;;;6280092;22;39154;-77
2020/12/19 11:40:04;;;;;;;15.60;11.10;;;9.40;47.10;;;;;;6280579;22;38330;-76
2020/12/19 11:42:31;;;;;;;11.40;8.67;;;9.30;47.20;;;;;;6280004;22;37123;-77
2020/12/19 11:44:58;;;;;;;14.70;7.97;;;9.20;47.50;;;;;;6253958;22;39567;-77
2020/12/19 11:47:25;;;;;;;9.47;8.40;;;9.20;47.70;;;;;;6280147;22;40001;-77
2020/12/19 11:49:56;;;;;;;9.40;7.70;;;9.10;48.20;;;;;;6252541;22;37454;-77
2020/12/19 11:52:23;;;;;;;11.67;8.00;;;9.10;48.40;;;;;;6280193;22;37836;-77
2020/12/19 11:54:50;;;;;;;17.10;12.67;;;9.00;48.40;;;;;;6280799;22;40664;-77
2020/12/19 11:57:18;;;;;;;10.00;8.00;;;9.00;48.60;;;;;;6252806;22;37768;-77
2020/12/19 11:59:47;;;;;;;12.33;8.83;;;9.00;49.00;;;;;;6280494;22;39027;-76
2020/12/19 12:02:14;;;;;;;9.57;7.20;;;9.00;49.20;;;;;;6280198;22;37168;-78
2020/12/19 12:04:41;;;;;;;8.33;7.53;;;9.00;49.20;;;;;;6280627;22;40018;-77
2020/12/19 12:07:10;;;;;;;11.20;9.13;;;8.90;49.20;;;;;;6280144;22;40261;-78
2020/12/19 12:09:37;;;;;;;8.43;6.50;;;8.90;49.50;;;;;;6280384;22;37850;-78
2020/12/19 12:12:04;;;;;;;11.70;8.20;;;8.90;49.60;;;;;;6280076;22;37679;-77
2020/12/19 12:14:32;;;;;;;9.07;7.20;;;8.80;49.90;;;;;;6251438;22;39606;-77
2020/12/19 12:16:59;;;;;;;8.50;7.10;;;8.80;50.00;;;;;;6249571;22;39658;-77
2020/12/19 12:19:26;;;;;;;9.70;8.27;;;8.80;50.00;;;;;;6249868;22;37447;-77
2020/12/19 12:21:54;;;;;;;8.93;7.27;;;8.80;50.20;;;;;;6249574;22;38316;-77
2020/12/19 12:24:22;;;;;;;13.63;9.20;;;8.80;50.20;;;;;;6222876;22;38645;-77
2020/12/19 12:26:49;;;;;;;11.83;8.30;;;8.80;50.20;;;;;;6249763;22;39968;-76
2020/12/19 12:29:16;;;;;;;12.60;7.70;;;8.80;50.20;;;;;;6222483;22;37302;-76
2020/12/19 12:31:44;;;;;;;13.10;8.07;;;8.80;50.10;;;;;;6249663;22;37414;-76
2020/12/19 12:34:11;;;;;;;8.30;7.33;;;8.80;50.20;;;;;;6248303;22;40406;-76
2020/12/19 12:36:46;;;;;;;9.20;7.00;;;8.90;50.40;;;;;;6220220;22;38045;-79
2020/12/19 12:39:15;;;;;;;8.43;6.83;;;8.90;50.40;;;;;;6249269;22;38501;-77
2020/12/19 12:41:46;;;;;;;8.60;6.97;;;8.90;50.50;;;;;;6223220;22;35925;-77
2020/12/19 12:44:18;;;;;;;8.53;6.80;;;9.00;50.20;;;;;;6222943;22;38298;-78
2020/12/19 12:46:49;;;;;;;10.27;6.87;;;9.00;50.00;;;;;;6222857;22;38866;-77
2020/12/19 12:49:17;;;;;;;9.20;7.03;;;9.00;50.10;;;;;;6251785;22;37596;-77
2020/12/19 12:51:45;;;;;;;9.90;7.10;;;9.00;50.30;;;;;;6223669;22;35874;-78
2020/12/19 12:54:12;;;;;;;9.80;8.00;;;9.00;50.60;;;;;;6251965;22;39799;-77
2020/12/19 12:56:39;;;;;;;7.83;6.87;;;9.10;50.60;;;;;;6219899;22;38902;-77
2020/12/19 12:59:06;;;;;;;7.40;5.90;;;9.10;50.20;;;;;;6249277;22;38086;-76
2020/12/19 13:01:34;;;;;;;6.53;5.83;;;9.20;50.20;;;;;;6222776;22;36319;-77
2020/12/19 13:04:02;;;;;;;10.50;7.10;;;9.20;50.10;;;;;;6248954;22;39708;-77